createdAt,value
2023-04-01T00:00:31.904Z,4.88
2023-04-01T00:00:58.364Z,4.88
2023-04-01T00:01:30.555Z,4.88
2023-04-01T00:02:10.091Z,4.88
2023-04-01T00:02:29.178Z,4.88
2023-04-01T00:02:58.432Z,4.88
2023-04-01T00:03:29.452Z,4.88
2023-04-01T00:04:00.312Z,4.88
2023-04-01T00:04:31.352Z,4.88
2023-04-01T00:05:01.854Z,4.88
2023-04-01T00:05:33.259Z,4.88
2023-04-01T00:06:04.349Z,4.88
2023-04-01T00:06:35.043Z,4.88
2023-04-01T00:07:06.106Z,4.88
2023-04-01T00:07:38.197Z,4.88
2023-04-01T00:08:08.030Z,4.88
2023-04-01T00:08:38.941Z,4.88
2023-04-01T00:09:10.044Z,4.88
2023-04-01T00:09:40.988Z,4.88
2023-04-01T00:10:12.154Z,4.88
2023-04-01T00:10:42.888Z,4.88
2023-04-01T00:11:13.964Z,4.88
2023-04-01T00:11:44.922Z,4.88
2023-04-01T00:12:15.789Z,4.88
2023-04-01T00:12:47.808Z,4.88
2023-04-01T00:13:18.634Z,4.88
2023-04-01T00:13:50.616Z,4.88
2023-04-01T00:14:20.527Z,4.88
2023-04-01T00:14:51.776Z,4.88
2023-04-01T00:15:25.149Z,4.88
2023-04-01T00:15:53.538Z,4.88
2023-04-01T00:16:24.358Z,4.88
2023-04-01T00:16:54.866Z,4.88
2023-04-01T00:17:25.894Z,4.88
2023-04-01T00:18:00.656Z,4.88
2023-04-01T00:18:28.621Z,4.88
2023-04-01T00:18:59.989Z,4.88
2023-04-01T00:19:30.167Z,4.88
2023-04-01T00:20:01.083Z,4.88
2023-04-01T00:20:32.491Z,4.88
2023-04-01T00:21:04.884Z,4.88
2023-04-01T00:21:34.210Z,4.88
2023-04-01T00:22:05.238Z,4.88
2023-04-01T00:22:36.209Z,4.88
2023-04-01T00:23:38.345Z,4.77
2023-04-01T00:24:09.519Z,4.77
2023-04-01T00:24:40.230Z,4.77
2023-04-01T00:25:11.028Z,4.77
2023-04-01T00:25:41.819Z,4.77
2023-04-01T00:26:13.603Z,4.77
2023-04-01T00:26:44.231Z,4.77
2023-04-01T00:27:14.997Z,4.77
2023-04-01T00:27:45.785Z,4.77
2023-04-01T00:28:18.086Z,4.77
2023-04-01T00:28:48.211Z,4.77
2023-04-01T00:29:19.193Z,4.77
2023-04-01T00:29:50.476Z,4.77
2023-04-01T00:30:24.743Z,4.77
2023-04-01T00:30:52.208Z,4.77
2023-04-01T00:31:22.772Z,4.77
2023-04-01T00:31:53.897Z,4.77
2023-04-01T00:32:25.055Z,4.77
2023-04-01T00:32:55.825Z,4.72
2023-04-01T00:33:27.923Z,4.72
2023-04-01T00:33:57.921Z,4.72
2023-04-01T00:34:28.768Z,4.72
2023-04-01T00:34:59.854Z,4.72
2023-04-01T00:35:31.074Z,4.72
2023-04-01T00:36:02.426Z,4.72
2023-04-01T00:36:33.508Z,4.72
2023-04-01T00:37:03.971Z,4.72
2023-04-01T00:37:35.419Z,4.72
2023-04-01T00:38:06.482Z,4.72
2023-04-01T00:38:38.536Z,4.72
2023-04-01T00:39:08.637Z,4.72
2023-04-01T00:39:39.816Z,4.72
2023-04-01T00:40:10.129Z,4.72
2023-04-01T00:40:43.992Z,4.72
2023-04-01T00:41:12.370Z,4.72
2023-04-01T00:41:43.105Z,4.72
2023-04-01T00:42:14.511Z,4.72
2023-04-01T00:42:45.449Z,4.72
2023-04-01T00:43:16.320Z,4.72
2023-04-01T00:43:49.346Z,4.72
2023-04-01T00:44:18.388Z,4.72
2023-04-01T00:44:48.986Z,4.72
2023-04-01T00:45:23.295Z,4.72
2023-04-01T00:45:51.537Z,4.72
2023-04-01T00:46:22.251Z,4.72
2023-04-01T00:46:53.382Z,4.72
2023-04-01T00:47:24.231Z,4.72
2023-04-01T00:47:55.386Z,4.72
2023-04-01T00:48:26.359Z,4.72
2023-04-01T00:48:58.205Z,4.72
2023-04-01T00:49:29.113Z,4.72
2023-04-01T00:49:59.363Z,4.72
2023-04-01T00:50:30.224Z,4.72
2023-04-01T00:51:01.271Z,4.72
2023-04-01T00:51:32.344Z,4.72
2023-04-01T00:52:03.053Z,4.72
2023-04-01T00:52:34.242Z,4.72
2023-04-01T00:53:05.456Z,4.72
2023-04-01T00:53:36.221Z,4.72
2023-04-01T00:54:38.736Z,4.72
2023-04-01T00:55:09.380Z,4.72
2023-04-01T00:55:40.362Z,4.72
2023-04-01T00:56:11.288Z,4.72
2023-04-01T00:56:42.143Z,4.72
2023-04-01T00:57:13.133Z,4.72
2023-04-01T00:57:44.313Z,4.72
2023-04-01T00:58:15.117Z,4.61
2023-04-01T00:58:46.213Z,4.61
2023-04-01T00:59:18.554Z,4.61
2023-04-01T00:59:48.403Z,4.50
2023-04-01T01:00:22.108Z,4.50
2023-04-01T01:00:50.210Z,4.38
2023-04-01T01:01:21.423Z,4.38
2023-04-01T01:01:52.187Z,4.38
2023-04-01T01:02:23.614Z,4.38
2023-04-01T01:02:54.278Z,4.50
2023-04-01T01:03:25.189Z,4.50
2023-04-01T01:03:56.254Z,4.50
2023-04-01T01:04:28.079Z,4.50
2023-04-01T01:04:58.305Z,4.50
2023-04-01T01:05:29.413Z,4.50
2023-04-01T01:06:00.355Z,4.50
2023-04-01T01:06:31.936Z,4.38
2023-04-01T01:07:02.387Z,4.38
2023-04-01T01:07:32.956Z,4.38
2023-04-01T01:08:04.133Z,4.38
2023-04-01T01:08:35.528Z,4.38
2023-04-01T01:09:06.159Z,4.38
2023-04-01T01:09:38.112Z,4.38
2023-04-01T01:10:07.995Z,4.27
2023-04-01T01:10:38.972Z,4.27
2023-04-01T01:11:10.392Z,4.27
2023-04-01T01:11:43.561Z,4.27
2023-04-01T01:12:17.666Z,4.27
2023-04-01T01:12:43.882Z,4.27
2023-04-01T01:13:14.535Z,4.27
2023-04-01T01:13:45.289Z,4.27
2023-04-01T01:14:16.595Z,4.27
2023-04-01T01:14:48.365Z,4.22
2023-04-01T01:15:20.947Z,4.22
2023-04-01T01:15:49.106Z,4.22
2023-04-01T01:16:20.621Z,4.22
2023-04-01T01:16:51.286Z,4.22
2023-04-01T01:17:22.581Z,4.22
2023-04-01T01:17:53.121Z,4.22
2023-04-01T01:18:24.245Z,4.22
2023-04-01T01:18:55.516Z,4.22
2023-04-01T01:19:26.248Z,4.22
2023-04-01T01:19:57.852Z,4.22
2023-04-01T01:20:28.553Z,4.22
2023-04-01T01:20:59.836Z,4.22
2023-04-01T01:21:30.175Z,4.22
2023-04-01T01:22:01.151Z,4.22
2023-04-01T01:22:32.477Z,4.11
2023-04-01T01:23:03.060Z,4.11
2023-04-01T01:23:34.083Z,4.11
2023-04-01T01:24:05.699Z,4.11
2023-04-01T01:24:36.753Z,4.11
2023-04-01T01:25:38.170Z,4.11
2023-04-01T01:26:09.393Z,4.11
2023-04-01T01:26:40.489Z,4.22
2023-04-01T01:27:12.312Z,4.11
2023-04-01T01:27:42.088Z,4.22
2023-04-01T01:28:13.024Z,4.22
2023-04-01T01:28:44.586Z,4.22
2023-04-01T01:29:15.348Z,4.11
2023-04-01T01:29:47.344Z,4.11
2023-04-01T01:30:21.654Z,4.11
2023-04-01T01:30:48.027Z,4.11
2023-04-01T01:31:18.998Z,4.11
2023-04-01T01:31:50.078Z,4.11
2023-04-01T01:32:21.354Z,4.11
2023-04-01T01:32:51.978Z,4.11
2023-04-01T01:33:23.286Z,4.11
2023-04-01T01:33:54.104Z,4.11
2023-04-01T01:34:25.671Z,4.11
2023-04-01T01:34:56.660Z,4.11
2023-04-01T01:35:28.338Z,4.11
2023-04-01T01:35:58.338Z,4.11
2023-04-01T01:36:29.365Z,4.11
2023-04-01T01:37:00.863Z,4.22
2023-04-01T01:37:31.922Z,4.22
2023-04-01T01:38:02.026Z,4.22
2023-04-01T01:38:33.371Z,4.22
2023-04-01T01:39:04.148Z,4.22
2023-04-01T01:39:35.484Z,4.22
2023-04-01T01:40:07.276Z,4.22
2023-04-01T01:40:38.446Z,4.22
2023-04-01T01:41:08.618Z,4.22
2023-04-01T01:41:40.240Z,4.22
2023-04-01T01:42:10.654Z,4.22
2023-04-01T01:42:41.172Z,4.22
2023-04-01T01:43:12.600Z,4.22
2023-04-01T01:43:42.978Z,4.22
2023-04-01T01:44:13.961Z,4.22
2023-04-01T01:44:45.500Z,4.22
2023-04-01T01:45:19.586Z,4.22
2023-04-01T01:45:48.243Z,4.22
2023-04-01T01:46:18.577Z,4.22
2023-04-01T01:46:49.594Z,4.22
2023-04-01T01:47:20.150Z,4.22
2023-04-01T01:47:51.546Z,4.27
2023-04-01T01:48:22.229Z,4.27
2023-04-01T01:48:53.031Z,4.27
2023-04-01T01:49:24.315Z,4.27
2023-04-01T01:49:55.337Z,4.27
2023-04-01T01:50:26.177Z,4.27
2023-04-01T01:50:58.361Z,4.27
2023-04-01T01:51:28.185Z,4.27
2023-04-01T01:51:59.396Z,4.27
2023-04-01T01:52:30.554Z,4.27
2023-04-01T01:53:00.959Z,4.27
2023-04-01T01:53:32.272Z,4.27
2023-04-01T01:54:02.995Z,4.27
2023-04-01T01:54:33.954Z,4.27
2023-04-01T01:55:05.193Z,4.38
2023-04-01T01:55:36.235Z,4.38
2023-04-01T01:56:39.952Z,4.38
2023-04-01T01:57:09.369Z,4.38
2023-04-01T01:57:40.770Z,4.38
2023-04-01T01:58:11.332Z,4.38
2023-04-01T01:58:41.957Z,4.38
2023-04-01T01:59:12.864Z,4.38
2023-04-01T01:59:44.355Z,4.38
2023-04-01T02:00:18.384Z,4.38
2023-04-01T02:00:46.176Z,4.38
2023-04-01T02:01:18.588Z,4.38
2023-04-01T02:01:48.131Z,4.38
2023-04-01T02:02:19.251Z,4.38
2023-04-01T02:02:50.454Z,4.38
2023-04-01T02:03:21.053Z,4.38
2023-04-01T02:03:52.163Z,4.38
2023-04-01T02:04:23.417Z,4.38
2023-04-01T02:04:54.908Z,4.38
2023-04-01T02:05:25.685Z,4.38
2023-04-01T02:05:56.062Z,4.38
2023-04-01T02:06:28.241Z,4.38
2023-04-01T02:06:57.806Z,4.38
2023-04-01T02:07:29.417Z,4.50
2023-04-01T02:08:00.412Z,4.50
2023-04-01T02:08:31.452Z,4.50
2023-04-01T02:09:02.076Z,4.50
2023-04-01T02:09:33.169Z,4.50
2023-04-01T02:10:04.020Z,4.50
2023-04-01T02:10:34.992Z,4.50
2023-04-01T02:11:06.656Z,4.50
2023-04-01T02:11:38.290Z,4.50
2023-04-01T02:12:08.539Z,4.50
2023-04-01T02:12:39.432Z,4.50
2023-04-01T02:13:10.189Z,4.50
2023-04-01T02:13:41.021Z,4.50
2023-04-01T02:14:12.250Z,4.50
2023-04-01T02:14:42.989Z,4.50
2023-04-01T02:15:17.419Z,4.50
2023-04-01T02:15:45.377Z,4.50
2023-04-01T02:16:16.386Z,4.50
2023-04-01T02:16:48.508Z,4.50
2023-04-01T02:17:18.204Z,4.50
2023-04-01T02:17:49.926Z,4.50
2023-04-01T02:18:20.032Z,4.50
2023-04-01T02:18:51.662Z,4.50
2023-04-01T02:19:22.485Z,4.50
2023-04-01T02:19:53.462Z,4.50
2023-04-01T02:20:24.608Z,4.50
2023-04-01T02:20:55.425Z,4.50
2023-04-01T02:21:26.271Z,4.50
2023-04-01T02:21:58.318Z,4.50
2023-04-01T02:22:28.318Z,4.50
2023-04-01T02:22:59.314Z,4.50
2023-04-01T02:23:30.709Z,4.50
2023-04-01T02:24:01.527Z,4.50
2023-04-01T02:24:32.587Z,4.50
2023-04-01T02:25:03.508Z,4.50
2023-04-01T02:25:34.946Z,4.50
2023-04-01T02:26:05.562Z,4.50
2023-04-01T02:26:36.271Z,4.50
2023-04-01T02:27:38.572Z,4.50
2023-04-01T02:28:09.507Z,4.50
2023-04-01T02:28:40.389Z,4.50
2023-04-01T02:29:11.422Z,4.50
2023-04-01T02:29:42.733Z,4.50
2023-04-01T02:30:16.369Z,4.50
2023-04-01T02:30:44.421Z,4.50
2023-04-01T02:31:16.507Z,4.50
2023-04-01T02:31:46.795Z,4.50
2023-04-01T02:32:18.011Z,4.50
2023-04-01T02:32:48.361Z,4.50
2023-04-01T02:33:19.131Z,4.50
2023-04-01T02:33:50.216Z,4.50
2023-04-01T02:34:21.378Z,4.50
2023-04-01T02:34:52.147Z,4.50
2023-04-01T02:35:23.328Z,4.50
2023-04-01T02:35:54.777Z,4.50
2023-04-01T02:36:25.178Z,4.50
2023-04-01T02:36:56.204Z,4.50
2023-04-01T02:37:28.822Z,4.50
2023-04-01T02:37:58.390Z,4.50
2023-04-01T02:38:29.422Z,4.50
2023-04-01T02:39:00.432Z,4.50
2023-04-01T02:39:31.197Z,4.50
2023-04-01T02:40:02.203Z,4.50
2023-04-01T02:40:33.186Z,4.50
2023-04-01T02:41:04.300Z,4.50
2023-04-01T02:41:35.301Z,4.50
2023-04-01T02:42:06.352Z,4.50
2023-04-01T02:42:38.432Z,4.50
2023-04-01T02:43:08.154Z,4.50
2023-04-01T02:43:39.196Z,4.50
2023-04-01T02:44:10.002Z,4.50
2023-04-01T02:44:41.347Z,4.50
2023-04-01T02:45:15.277Z,4.50
2023-04-01T02:45:44.704Z,4.50
2023-04-01T02:46:14.134Z,4.50
2023-04-01T02:46:45.529Z,4.50
2023-04-01T02:47:15.981Z,4.50
2023-04-01T02:47:48.270Z,4.50
2023-04-01T02:48:18.334Z,4.50
2023-04-01T02:48:49.369Z,4.50
2023-04-01T02:49:20.603Z,4.50
2023-04-01T02:49:51.133Z,4.50
2023-04-01T02:50:22.061Z,4.50
2023-04-01T02:50:53.194Z,4.50
2023-04-01T02:51:24.213Z,4.50
2023-04-01T02:51:55.148Z,4.50
2023-04-01T02:52:27.013Z,4.50
2023-04-01T02:52:58.273Z,4.50
2023-04-01T02:53:28.083Z,4.50
2023-04-01T02:53:59.174Z,4.50
2023-04-01T02:54:30.689Z,4.50
2023-04-01T02:55:01.154Z,4.50
2023-04-01T02:55:32.544Z,4.50
2023-04-01T02:56:03.383Z,4.50
2023-04-01T02:56:35.732Z,4.50
2023-04-01T02:57:05.301Z,4.50
2023-04-01T02:57:36.449Z,4.50
2023-04-01T02:58:38.309Z,4.50
2023-04-01T02:59:09.175Z,4.50
2023-04-01T02:59:40.028Z,4.50
2023-04-01T03:00:14.161Z,4.50
2023-04-01T03:00:42.211Z,4.50
2023-04-01T03:01:13.467Z,4.50
2023-04-01T03:01:44.369Z,4.50
2023-04-01T03:02:15.280Z,4.50
2023-04-01T03:02:46.934Z,4.50
2023-04-01T03:03:18.162Z,4.50
2023-04-01T03:03:48.047Z,4.50
2023-04-01T03:04:19.930Z,4.50
2023-04-01T03:04:49.920Z,4.50
2023-04-01T03:05:21.122Z,4.50
2023-04-01T03:05:52.099Z,4.50
2023-04-01T03:06:23.152Z,4.50
2023-04-01T03:06:54.267Z,4.50
2023-04-01T03:07:24.977Z,4.50
2023-04-01T03:07:56.052Z,4.50
2023-04-01T03:08:28.172Z,4.50
2023-04-01T03:08:58.182Z,4.50
2023-04-01T03:09:29.407Z,4.50
2023-04-01T03:10:00.735Z,4.50
2023-04-01T03:10:31.319Z,4.50
2023-04-01T03:11:02.294Z,4.50
2023-04-01T03:11:33.435Z,4.50
2023-04-01T03:12:05.281Z,4.50
2023-04-01T03:12:35.271Z,4.50
2023-04-01T03:13:06.388Z,4.50
2023-04-01T03:13:38.416Z,4.50
2023-04-01T03:14:08.433Z,4.50
2023-04-01T03:14:39.112Z,4.50
2023-04-01T03:15:12.806Z,4.50
2023-04-01T03:15:41.361Z,4.50
2023-04-01T03:16:12.587Z,4.50
2023-04-01T03:16:43.574Z,4.50
2023-04-01T03:17:14.291Z,4.50
2023-04-01T03:17:45.227Z,4.50
2023-04-01T03:18:16.505Z,4.50
2023-04-01T03:18:48.096Z,4.50
2023-04-01T03:19:20.107Z,4.50
2023-04-01T03:19:49.740Z,4.50
2023-04-01T03:20:20.011Z,4.50
2023-04-01T03:20:51.602Z,4.50
2023-04-01T03:21:22.669Z,4.50
2023-04-01T03:21:53.239Z,4.50
2023-04-01T03:22:24.297Z,4.50
2023-04-01T03:22:55.193Z,4.50
2023-04-01T03:23:26.637Z,4.50
2023-04-01T03:23:58.279Z,4.50
2023-04-01T03:24:28.721Z,4.50
2023-04-01T03:24:59.683Z,4.50
2023-04-01T03:25:30.299Z,4.50
2023-04-01T03:26:01.284Z,4.50
2023-04-01T03:26:32.914Z,4.50
2023-04-01T03:27:03.304Z,4.50
2023-04-01T03:27:34.096Z,4.50
2023-04-01T03:28:05.117Z,4.50
2023-04-01T03:28:36.380Z,4.50
2023-04-01T03:29:38.458Z,4.50
2023-04-01T03:30:12.378Z,4.50
2023-04-01T03:30:40.059Z,4.50
2023-04-01T03:31:11.203Z,4.50
2023-04-01T03:31:41.972Z,4.50
2023-04-01T03:32:13.034Z,4.50
2023-04-01T03:32:44.185Z,4.61
2023-04-01T03:33:15.397Z,4.50
2023-04-01T03:33:46.061Z,4.50
2023-04-01T03:34:18.746Z,4.61
2023-04-01T03:37:23.349Z,4.61
2023-04-01T03:37:54.063Z,4.61
2023-04-01T03:38:25.458Z,4.61
2023-04-01T03:38:56.524Z,4.61
2023-04-01T03:39:28.991Z,4.61
2023-04-01T03:39:58.547Z,4.61
2023-04-01T03:40:29.307Z,4.61
2023-04-01T03:41:00.675Z,4.61
2023-04-01T03:41:31.533Z,4.61
2023-04-01T03:42:02.345Z,4.61
2023-04-01T03:42:33.275Z,4.61
2023-04-01T03:43:04.195Z,4.61
2023-04-01T03:43:34.988Z,4.61
2023-04-01T03:44:06.397Z,4.61
2023-04-01T03:44:38.434Z,4.61
2023-04-01T03:45:11.200Z,4.61
2023-04-01T03:45:39.361Z,4.61
2023-04-01T03:46:10.383Z,4.61
2023-04-01T03:46:41.818Z,4.61
2023-04-01T03:47:12.325Z,4.61
2023-04-01T03:47:43.093Z,4.61
2023-04-01T03:48:14.452Z,4.61
2023-04-01T03:48:45.422Z,4.61
2023-04-01T03:49:16.695Z,4.61
2023-04-01T03:49:48.465Z,4.61
2023-04-01T03:50:18.659Z,4.61
2023-04-01T03:50:49.242Z,4.61
2023-04-01T03:51:20.126Z,4.61
2023-04-01T03:51:51.698Z,4.61
2023-04-01T03:52:22.521Z,4.61
2023-04-01T03:52:53.341Z,4.61
2023-04-01T03:53:24.324Z,4.61
2023-04-01T03:53:55.308Z,4.61
2023-04-01T03:54:26.394Z,4.61
2023-04-01T03:54:58.454Z,4.61
2023-04-01T03:55:28.497Z,4.61
2023-04-01T03:55:59.734Z,4.61
2023-04-01T03:56:30.367Z,4.61
2023-04-01T03:57:01.637Z,4.61
2023-04-01T03:57:32.255Z,4.61
2023-04-01T03:58:03.041Z,4.61
2023-04-01T03:58:34.316Z,4.61
2023-04-01T03:59:05.073Z,4.61
2023-04-01T03:59:36.268Z,4.61
2023-04-01T04:00:41.338Z,4.61
2023-04-01T04:01:09.234Z,4.61
2023-04-01T04:01:40.974Z,4.61
2023-04-01T04:02:11.503Z,4.61
2023-04-01T04:02:42.680Z,4.61
2023-04-01T04:03:13.873Z,4.72
2023-04-01T04:03:44.859Z,4.61
2023-04-01T04:04:15.415Z,4.61
2023-04-01T04:04:46.559Z,4.61
2023-04-01T04:05:18.215Z,4.61
2023-04-01T04:05:48.617Z,4.61
2023-04-01T04:06:19.302Z,4.61
2023-04-01T04:06:50.112Z,4.61
2023-04-01T04:07:21.100Z,4.61
2023-04-01T04:07:51.989Z,4.61
2023-04-01T04:08:22.990Z,4.61
2023-04-01T04:08:53.872Z,4.61
2023-04-01T04:09:25.337Z,4.61
2023-04-01T04:09:56.078Z,4.61
2023-04-01T04:10:28.587Z,4.61
2023-04-01T04:10:58.417Z,4.61
2023-04-01T04:11:29.611Z,4.61
2023-04-01T04:12:00.396Z,4.61
2023-04-01T04:12:31.385Z,4.61
2023-04-01T04:13:02.302Z,4.61
2023-04-01T04:13:33.658Z,4.61
2023-04-01T04:14:04.544Z,4.61
2023-04-01T04:14:35.089Z,4.61
2023-04-01T04:15:08.816Z,4.61
2023-04-01T04:15:38.095Z,4.61
2023-04-01T04:16:08.766Z,4.61
2023-04-01T04:16:39.090Z,4.61
2023-04-01T04:17:10.075Z,4.61
2023-04-01T04:17:43.764Z,4.61
2023-04-01T04:18:12.058Z,4.61
2023-04-01T04:18:43.150Z,4.61
2023-04-01T04:19:14.754Z,4.61
2023-04-01T04:19:46.558Z,4.61
2023-04-01T04:20:16.580Z,4.61
2023-04-01T04:20:48.424Z,4.61
2023-04-01T04:21:18.645Z,4.61
2023-04-01T04:21:49.687Z,4.61
2023-04-01T04:22:20.469Z,4.50
2023-04-01T04:22:50.993Z,4.50
2023-04-01T04:23:22.218Z,4.50
2023-04-01T04:23:53.018Z,4.50
2023-04-01T04:24:24.339Z,4.50
2023-04-01T04:24:55.379Z,4.50
2023-04-01T04:25:28.488Z,4.50
2023-04-01T04:25:59.246Z,4.50
2023-04-01T04:26:27.888Z,4.50
2023-04-01T04:26:59.771Z,4.50
2023-04-01T04:27:30.260Z,4.50
2023-04-01T04:28:01.566Z,4.50
2023-04-01T04:28:32.456Z,4.50
2023-04-01T04:29:03.114Z,4.50
2023-04-01T04:29:34.444Z,4.50
2023-04-01T04:30:07.968Z,4.50
2023-04-01T04:30:36.312Z,4.50
2023-04-01T04:31:38.263Z,4.38
2023-04-01T04:32:09.214Z,4.38
2023-04-01T04:32:40.573Z,4.38
2023-04-01T04:33:11.244Z,4.38
2023-04-01T04:33:42.116Z,4.38
2023-04-01T04:34:13.460Z,4.38
2023-04-01T04:34:44.278Z,4.27
2023-04-01T04:35:15.470Z,4.27
2023-04-01T04:35:46.490Z,4.27
2023-04-01T04:36:18.892Z,4.27
2023-04-01T04:36:48.397Z,4.27
2023-04-01T04:37:18.937Z,4.27
2023-04-01T04:37:50.053Z,4.27
2023-04-01T04:38:21.071Z,4.27
2023-04-01T04:38:52.114Z,4.27
2023-04-01T04:39:23.407Z,4.27
2023-04-01T04:39:54.093Z,4.27
2023-04-01T04:40:24.789Z,4.22
2023-04-01T04:40:56.298Z,4.22
2023-04-01T04:41:28.216Z,4.22
2023-04-01T04:41:58.087Z,4.22
2023-04-01T04:42:29.026Z,4.22
2023-04-01T04:43:00.327Z,4.22
2023-04-01T04:43:31.214Z,4.22
2023-04-01T04:44:02.104Z,4.22
2023-04-01T04:44:33.725Z,4.22
2023-04-01T04:45:07.577Z,4.22
2023-04-01T04:45:35.085Z,4.22
2023-04-01T04:46:06.113Z,4.11
2023-04-01T04:46:38.301Z,4.11
2023-04-01T04:47:08.288Z,4.11
2023-04-01T04:47:38.920Z,4.11
2023-04-01T04:48:09.931Z,4.11
2023-04-01T04:48:40.961Z,4.11
2023-04-01T04:49:12.659Z,4.00
2023-04-01T04:49:43.239Z,4.00
2023-04-01T04:50:14.433Z,4.00
2023-04-01T04:50:45.490Z,4.00
2023-04-01T04:51:16.251Z,4.00
2023-04-01T04:51:48.373Z,4.00
2023-04-01T04:52:19.180Z,4.00
2023-04-01T04:52:49.247Z,4.00
2023-04-01T04:53:20.182Z,4.00
2023-04-01T04:53:53.092Z,4.00
2023-04-01T04:54:21.889Z,4.00
2023-04-01T04:54:52.932Z,4.00
2023-04-01T04:55:24.028Z,4.00
2023-04-01T04:55:55.090Z,3.88
2023-04-01T04:56:25.999Z,3.88
2023-04-01T04:56:58.175Z,3.88
2023-04-01T04:57:28.236Z,3.88
2023-04-01T04:57:59.439Z,3.88
2023-04-01T04:58:30.116Z,3.88
2023-04-01T04:59:01.052Z,3.88
2023-04-01T04:59:32.121Z,3.88
2023-04-01T05:00:05.826Z,3.88
2023-04-01T05:00:33.911Z,3.77
2023-04-01T05:01:05.575Z,3.77
2023-04-01T05:01:36.603Z,3.77
2023-04-01T05:02:38.504Z,3.77
2023-04-01T05:03:10.139Z,3.77
2023-04-01T05:03:40.226Z,3.77
2023-04-01T05:04:11.398Z,3.77
2023-04-01T05:04:42.785Z,3.77
2023-04-01T05:05:13.531Z,3.77
2023-04-01T05:05:44.285Z,3.77
2023-04-01T05:06:15.786Z,3.77
2023-04-01T05:06:46.285Z,3.88
2023-04-01T05:07:18.403Z,3.88
2023-04-01T05:07:48.519Z,3.88
2023-04-01T05:08:19.435Z,3.88
2023-04-01T05:08:50.482Z,3.88
2023-04-01T05:09:21.300Z,3.88
2023-04-01T05:09:52.085Z,3.88
2023-04-01T05:10:23.133Z,3.88
2023-04-01T05:10:54.375Z,3.88
2023-04-01T05:11:25.139Z,3.88
2023-04-01T05:11:56.314Z,3.88
2023-04-01T05:12:28.240Z,3.88
2023-04-01T05:12:58.170Z,3.88
2023-04-01T05:13:29.206Z,3.88
2023-04-01T05:14:00.411Z,3.88
2023-04-01T05:14:31.405Z,4.00
2023-04-01T05:15:05.370Z,4.00
2023-04-01T05:15:33.463Z,4.00
2023-04-01T05:16:04.239Z,4.00
2023-04-01T05:16:35.584Z,4.00
2023-04-01T05:17:06.265Z,4.00
2023-04-01T05:17:38.478Z,4.00
2023-04-01T05:18:08.512Z,4.00
2023-04-01T05:18:39.145Z,4.00
2023-04-01T05:19:10.447Z,4.00
2023-04-01T05:19:42.034Z,4.00
2023-04-01T05:20:13.109Z,4.00
2023-04-01T05:20:43.449Z,4.00
2023-04-01T05:21:14.969Z,4.00
2023-04-01T05:21:46.263Z,4.00
2023-04-01T05:22:16.678Z,4.00
2023-04-01T05:22:48.349Z,4.00
2023-04-01T05:23:18.255Z,4.00
2023-04-01T05:23:49.235Z,4.11
2023-04-01T05:24:20.228Z,4.11
2023-04-01T05:24:51.378Z,4.11
2023-04-01T05:25:22.398Z,4.11
2023-04-01T05:25:53.396Z,4.11
2023-04-01T05:26:24.489Z,4.11
2023-04-01T05:26:56.984Z,4.11
2023-04-01T05:27:26.993Z,4.11
2023-04-01T05:27:58.449Z,4.11
2023-04-01T05:28:28.256Z,4.11
2023-04-01T05:28:59.632Z,4.11
2023-04-01T05:29:30.765Z,4.11
2023-04-01T05:30:04.322Z,4.11
2023-04-01T05:30:32.419Z,4.11
2023-04-01T05:31:03.447Z,4.11
2023-04-01T05:31:34.213Z,4.11
2023-04-01T05:32:05.437Z,4.11
2023-04-01T05:32:36.365Z,4.22
2023-04-01T05:33:38.342Z,4.22
2023-04-01T05:34:09.571Z,4.22
2023-04-01T05:34:40.600Z,4.22
2023-04-01T05:35:11.446Z,4.22
2023-04-01T05:35:42.629Z,4.22
2023-04-01T05:36:13.428Z,4.22
2023-04-01T05:36:44.332Z,4.22
2023-04-01T05:37:16.383Z,4.22
2023-04-01T05:37:46.963Z,4.22
2023-04-01T05:38:18.759Z,4.27
2023-04-01T05:38:48.539Z,4.27
2023-04-01T05:39:19.283Z,4.27
2023-04-01T05:39:50.297Z,4.27
2023-04-01T05:40:21.465Z,4.27
2023-04-01T05:40:52.547Z,4.27
2023-04-01T05:41:23.525Z,4.27
2023-04-01T05:41:54.415Z,4.27
2023-04-01T05:42:25.356Z,4.27
2023-04-01T05:42:56.408Z,4.27
2023-04-01T05:43:28.332Z,4.38
2023-04-01T05:43:58.383Z,4.38
2023-04-01T05:44:29.219Z,4.38
2023-04-01T05:45:00.287Z,4.38
2023-04-01T05:45:34.692Z,4.38
2023-04-01T05:46:02.434Z,4.38
2023-04-01T05:46:33.815Z,4.38
2023-04-01T05:47:04.667Z,4.38
2023-04-01T05:47:35.689Z,4.38
2023-04-01T05:48:06.363Z,4.50
2023-04-01T05:48:38.239Z,4.50
2023-04-01T05:49:09.084Z,4.50
2023-04-01T05:49:39.336Z,4.50
2023-04-01T05:50:10.336Z,4.50
2023-04-01T05:50:41.405Z,4.50
2023-04-01T05:51:12.635Z,4.50
2023-04-01T05:51:43.567Z,4.50
2023-04-01T05:52:14.582Z,4.50
2023-04-01T05:52:46.001Z,4.50
2023-04-01T05:53:16.952Z,4.50
2023-04-01T05:53:48.802Z,4.50
2023-04-01T05:54:18.477Z,4.50
2023-04-01T05:54:49.348Z,4.61
2023-04-01T05:55:20.536Z,4.61
2023-04-01T05:55:52.052Z,4.61
2023-04-01T05:56:23.017Z,4.61
2023-04-01T05:56:53.857Z,4.61
2023-04-01T05:57:24.589Z,4.61
2023-04-01T05:57:55.612Z,4.61
2023-04-01T05:58:26.776Z,4.61
2023-04-01T05:58:58.626Z,4.61
2023-04-01T05:59:29.143Z,4.72
2023-04-01T05:59:59.277Z,4.72
2023-04-01T06:00:33.585Z,4.72
2023-04-01T06:01:09.413Z,4.72
2023-04-01T06:01:32.520Z,4.72
2023-04-01T06:02:03.754Z,4.72
2023-04-01T06:02:34.508Z,4.72
2023-04-01T06:03:05.477Z,4.72
2023-04-01T06:03:36.336Z,4.72
2023-04-01T06:04:38.656Z,4.72
2023-04-01T06:05:09.611Z,4.77
2023-04-01T06:05:40.377Z,4.77
2023-04-01T06:06:11.527Z,4.77
2023-04-01T06:06:42.701Z,4.77
2023-04-01T06:07:13.489Z,4.77
2023-04-01T06:07:44.704Z,4.77
2023-04-01T06:08:16.615Z,4.77
2023-04-01T06:08:46.615Z,4.77
2023-04-01T06:09:18.705Z,4.77
2023-04-01T06:09:48.693Z,4.77
2023-04-01T06:10:19.474Z,4.77
2023-04-01T06:10:50.392Z,4.77
2023-04-01T06:11:21.776Z,4.77
2023-04-01T06:11:52.894Z,4.77
2023-04-01T06:12:25.208Z,4.77
2023-04-01T06:12:55.044Z,4.77
2023-04-01T06:13:25.484Z,4.77
2023-04-01T06:13:56.545Z,4.77
2023-04-01T06:14:28.583Z,4.77
2023-04-01T06:14:58.465Z,4.77
2023-04-01T06:15:32.438Z,4.77
2023-04-01T06:16:00.710Z,4.77
2023-04-01T06:16:31.482Z,4.77
2023-04-01T06:17:02.310Z,4.77
2023-04-01T06:17:33.536Z,4.77
2023-04-01T06:18:04.843Z,4.77
2023-04-01T06:18:35.300Z,4.77
2023-04-01T06:19:06.830Z,4.77
2023-04-01T06:19:38.487Z,4.77
2023-04-01T06:20:08.577Z,4.77
2023-04-01T06:20:39.558Z,4.77
2023-04-01T06:21:10.413Z,4.72
2023-04-01T06:21:41.348Z,4.72
2023-04-01T06:22:12.819Z,4.72
2023-04-01T06:22:43.427Z,4.72
2023-04-01T06:23:14.440Z,4.72
2023-04-01T06:23:45.623Z,4.72
2023-04-01T06:24:16.536Z,4.72
2023-04-01T06:24:50.221Z,4.72
2023-04-01T06:25:18.576Z,4.72
2023-04-01T06:25:49.470Z,4.72
2023-04-01T06:26:20.914Z,4.72
2023-04-01T06:26:51.516Z,4.72
2023-04-01T06:27:22.303Z,4.77
2023-04-01T06:27:53.595Z,4.77
2023-04-01T06:28:24.425Z,4.77
2023-04-01T06:28:55.288Z,4.77
2023-04-01T06:29:26.417Z,4.77
2023-04-01T06:29:58.649Z,4.77
2023-04-01T06:30:31.134Z,4.77
2023-04-01T06:30:59.407Z,4.77
2023-04-01T06:31:30.482Z,4.77
2023-04-01T06:32:01.466Z,4.72
2023-04-01T06:32:32.568Z,4.72
2023-04-01T06:33:03.530Z,4.72
2023-04-01T06:33:34.391Z,4.72
2023-04-01T06:34:05.258Z,4.72
2023-04-01T06:34:36.133Z,4.72
2023-04-01T06:35:38.497Z,4.72
2023-04-01T06:36:09.567Z,4.72
2023-04-01T06:36:40.500Z,4.72
2023-04-01T06:37:11.718Z,4.61
2023-04-01T06:37:42.310Z,4.61
2023-04-01T06:38:13.447Z,4.61
2023-04-01T06:38:44.452Z,4.61
2023-04-01T06:39:15.332Z,4.61
2023-04-01T06:39:46.127Z,4.72
2023-04-01T06:40:18.529Z,4.72
2023-04-01T06:40:48.359Z,4.72
2023-04-01T06:41:19.370Z,4.72
2023-04-01T06:41:50.552Z,4.72
2023-04-01T06:42:21.441Z,4.72
2023-04-01T06:42:52.300Z,4.72
2023-04-01T06:43:23.431Z,4.72
2023-04-01T06:43:54.276Z,4.72
2023-04-01T06:44:25.295Z,4.72
2023-04-01T06:44:56.580Z,4.72
2023-04-01T06:45:31.368Z,4.72
2023-04-01T06:45:58.556Z,4.72
2023-04-01T06:46:29.698Z,4.72
2023-04-01T06:47:00.734Z,4.72
2023-04-01T06:47:32.495Z,4.72
2023-04-01T06:48:02.762Z,4.72
2023-04-01T06:48:33.257Z,4.72
2023-04-01T06:49:05.632Z,4.72
2023-04-01T06:49:35.549Z,4.72
2023-04-01T06:50:06.583Z,4.72
2023-04-01T06:50:38.463Z,4.72
2023-04-01T06:51:08.431Z,4.72
2023-04-01T06:51:39.774Z,4.72
2023-04-01T06:52:10.621Z,4.72
2023-04-01T06:52:41.588Z,4.72
2023-04-01T06:53:12.306Z,4.72
2023-04-01T06:53:43.672Z,4.77
2023-04-01T06:54:14.701Z,4.77
2023-04-01T06:54:45.978Z,4.77
2023-04-01T06:55:16.739Z,4.77
2023-04-01T06:55:48.529Z,4.72
2023-04-01T06:56:18.691Z,4.77
2023-04-01T06:56:49.300Z,4.77
2023-04-01T06:57:20.294Z,4.77
2023-04-01T06:57:51.142Z,4.77
2023-04-01T06:58:22.136Z,4.77
2023-04-01T06:58:53.668Z,4.77
2023-04-01T06:59:24.615Z,4.77
2023-04-01T06:59:55.367Z,4.77
2023-04-01T07:00:29.474Z,4.77
2023-04-01T07:00:58.746Z,4.77
2023-04-01T07:01:28.208Z,4.77
2023-04-01T07:01:59.539Z,4.77